Flight Track Log - Related Links

Times and Time Zones

All times are in EDT time to prevent confusion due to time zone crossing. See the UAL3272 flight status page for this flight to view local times or setup timezone preferences in your user account.

Time Position Orientation Groundspeed Altitude Reporting Facility
EDT Latitude Longitude Course Direction KTS MPH feet Rate Location/Type
Mon 06:28:40 AM 43.6833 -79.5667 47° Northeast 160 184 2,300  Level Toronto Center
Mon 06:29:40 AM 43.7167 -79.5167 47° Northeast 220 253 4,400 2,150 Climbing Toronto Center
Mon 06:30:40 AM 43.6833 -79.4500 125° Southeast 240 276 6,600 2,450 Climbing Toronto Center
Mon 06:31:40 AM 43.6333 -79.5000 216° Southwest 240 276 9,300 2,050 Climbing Toronto Center
Mon 06:32:40 AM 43.5500 -79.5333 196° South 300 345 10,700 1,550 Climbing Toronto Center
Mon 06:33:40 AM 43.4667 -79.5833 204° Southwest 330 380 12,400 1,650 Climbing Toronto Center
Mon 06:34:40 AM 43.3833 -79.6333 204° Southwest 340 391 14,000 1,700 Climbing Toronto Center
Mon 06:35:40 AM 43.2833 -79.6833 200° South 350 403 15,800 1,750 Climbing Toronto Center
Mon 06:36:40 AM 43.1833 -79.7000 187° South 360 414 17,500 1,400 Climbing Toronto Center
Mon 06:37:40 AM 43.0833 -79.7167 187° South 370 426 18,600 1,400 Climbing Toronto Center
Mon 06:38:40 AM 42.9833 -79.7500 194° South 380 437 20,300 1,600 Climbing Toronto Center
Mon 06:39:40 AM 42.8833 -79.8000 200° South 380 437 21,800 850 Climbing Toronto Center
Mon 06:40:40 AM 42.7833 -79.8333 194° South 390 449 22,000 100 Climbing Toronto Center
Mon 06:41:40 AM 42.6833 -79.9000 206° Southwest 390 449 22,000  Level Toronto Center
Mon 06:42:40 AM 42.5833 -79.9500 200° South 380 437 22,000  Level Toronto Center
Mon 06:43:38 AM 42.4964 -80.0311 215° Southwest 402 463 22,000  Level Cleveland Center
Mon 06:44:38 AM 42.3967 -80.0856 202° Southwest 402 463 22,000  Level Cleveland Center
Mon 06:45:38 AM 42.3114 -80.1761 218° Southwest 390 449 22,000  Level Cleveland Center
Mon 06:46:38 AM 42.2325 -80.2775 224° Southwest 390 449 22,000  Level Cleveland Center
Mon 06:47:38 AM 42.1558 -80.3758 224° Southwest 390 449 22,000  Level Cleveland Center
Mon 06:48:38 AM 42.0725 -80.4742 221° Southwest 395 455 22,000 -645 Level Cleveland Center
Mon 06:49:39 AM 41.9953 -80.5747 224° Southwest 395 455 20,700 -1,450 Descending Cleveland Center
Mon 06:50:38 AM 41.9244 -80.6614 222° Southwest 390 449 19,100 -1,815 Descending Cleveland Center
Mon 06:51:38 AM 41.8472 -80.7558 222° Southwest 390 449 17,100 -1,983 Descending Cleveland Center
Mon 06:52:39 AM 41.7742 -80.8478 223° Southwest 374 430 15,100 -2,059 Descending Cleveland Center
Mon 06:53:20 AM 41.7219 -80.9142 224° Southwest 347 399 13,600 -2,034 Descending Cleveland Center
Mon 06:53:38 AM 41.7031 -80.9364 221° Southwest 366 421 13,100 -2,000 Descending Cleveland Center
Mon 06:54:14 AM 41.6653 -81.0028 233° Southwest 335 386 11,800 -1,967 Descending Cleveland Center
Mon 06:54:39 AM 41.6672 -81.0417 274° West 327 376 11,100 -1,644 Descending Cleveland Center
Mon 06:55:27 AM 41.6731 -81.1392 275° West 291 335 9,800 -1,431 Descending Cleveland Center
Mon 06:56:28 AM 41.6786 -81.2447 274° West 279 321 8,500 -1,228 Descending Cleveland Center
Mon 06:57:34 AM 41.6592 -81.3531 257° West 263 303 7,200 -1,039 Descending Cleveland Center
Mon 06:58:35 AM 41.6419 -81.4500 257° West 270 311 6,300 -934 Descending Cleveland Center
Mon 06:59:36 AM 41.6142 -81.5331 246° West 253 291 5,300 -683 Descending Cleveland Center
Mon 07:00:38 AM 41.5697 -81.6044 230° Southwest 248 285 4,900 -537 Descending Cleveland Center
Mon 07:01:39 AM 41.5253 -81.6731 229° Southwest 248 285 4,200 -850 Descending Cleveland Center
Mon 07:02:38 AM 41.4914 -81.7253 229° Southwest 182 209 3,200 -912 Descending Cleveland Center
Mon 07:03:44 AM 41.4597 -81.7772 231° Southwest 129 148 2,300 -709 Descending Cleveland Center
Mon 07:04:45 AM 41.4428 -81.8047 231° Southwest 86 99 1,700 -524 Descending Cleveland Center
Mon 07:05:27 AM 41.4300 -81.8239 228° Southwest 99 114 1,400 -429 Descending Cleveland Center
Mon 07:07:00 AM 41.4000 -81.8500 252° West  Level FlightAware Approximate
Mon 07:14:00 AM 41.4094 -81.8547 252° West  Level Estimated

Login

Don't have an account? Register now (free) for customized features, flight alerts, and more!